sensor_id;sensor_type;location;lat;lon;timestamp;pressure;altitude;pressure_sealevel;temperature;humidity
56825;BME280;42705;50.326;18.772;2022-12-19T00:03:46;100453.87;;;-6.89;63.98
56825;BME280;42705;50.326;18.772;2022-12-19T00:09:10;100434.30;;;-6.93;64.33
56825;BME280;42705;50.326;18.772;2022-12-19T00:14:32;100429.23;;;-6.90;64.43
56825;BME280;42705;50.326;18.772;2022-12-19T00:19:53;100428.28;;;-7.00;64.14
56825;BME280;42705;50.326;18.772;2022-12-19T00:25:14;100426.03;;;-7.09;64.22
56825;BME280;42705;50.326;18.772;2022-12-19T00:30:35;100438.19;;;-7.21;64.48
56825;BME280;42705;50.326;18.772;2022-12-19T00:35:59;100441.86;;;-7.01;64.86
56825;BME280;42705;50.326;18.772;2022-12-19T00:41:24;100445.33;;;-6.95;64.61
56825;BME280;42705;50.326;18.772;2022-12-19T00:46:49;100444.67;;;-7.12;64.47
56825;BME280;42705;50.326;18.772;2022-12-19T00:52:10;100440.77;;;-7.18;64.52
56825;BME280;42705;50.326;18.772;2022-12-19T00:57:31;100442.45;;;-7.20;64.60
56825;BME280;42705;50.326;18.772;2022-12-19T01:02:52;100442.41;;;-7.23;64.69
56825;BME280;42705;50.326;18.772;2022-12-19T01:08:16;100435.53;;;-7.29;64.69
56825;BME280;42705;50.326;18.772;2022-12-19T01:13:38;100419.16;;;-7.15;65.11
56825;BME280;42705;50.326;18.772;2022-12-19T01:19:02;100403.67;;;-6.96;65.16
56825;BME280;42705;50.326;18.772;2022-12-19T01:24:23;100389.31;;;-6.88;64.92
56825;BME280;42705;50.326;18.772;2022-12-19T01:29:44;100397.77;;;-6.92;64.75
56825;BME280;42705;50.326;18.772;2022-12-19T01:35:06;100376.55;;;-6.92;64.48
56825;BME280;42705;50.326;18.772;2022-12-19T01:40:29;100379.43;;;-7.01;64.47
56825;BME280;42705;50.326;18.772;2022-12-19T01:46:03;100367.53;;;-7.00;64.52
56825;BME280;42705;50.326;18.772;2022-12-19T01:51:29;100353.20;;;-6.90;64.70
56825;BME280;42705;50.326;18.772;2022-12-19T01:56:54;100351.92;;;-6.90;64.35
56825;BME280;42705;50.326;18.772;2022-12-19T02:07:54;100357.05;;;-6.86;64.43
56825;BME280;42705;50.326;18.772;2022-12-19T02:13:15;100360.13;;;-6.78;64.22
56825;BME280;42705;50.326;18.772;2022-12-19T02:24:31;100360.78;;;-6.54;64.20
56825;BME280;42705;50.326;18.772;2022-12-19T02:30:07;100340.05;;;-6.43;64.01
56825;BME280;42705;50.326;18.772;2022-12-19T02:35:41;100338.27;;;-6.53;63.44
56825;BME280;42705;50.326;18.772;2022-12-19T02:41:13;100333.41;;;-6.71;63.31
56825;BME280;42705;50.326;18.772;2022-12-19T02:46:32;100329.33;;;-6.97;62.94
56825;BME280;42705;50.326;18.772;2022-12-19T02:51:54;100337.09;;;-7.25;63.01
56825;BME280;42705;50.326;18.772;2022-12-19T03:09:18;100304.33;;;-7.67;63.41
56825;BME280;42705;50.326;18.772;2022-12-19T03:14:41;100290.50;;;-7.86;63.44
56825;BME280;42705;50.326;18.772;2022-12-19T03:20:47;100301.41;;;-7.95;63.59
56825;BME280;42705;50.326;18.772;2022-12-19T03:25:53;100295.36;;;-8.02;63.80
56825;BME280;42705;50.326;18.772;2022-12-19T03:31:20;100301.24;;;-8.06;63.84
56825;BME280;42705;50.326;18.772;2022-12-19T03:36:46;100310.94;;;-8.10;63.92
56825;BME280;42705;50.326;18.772;2022-12-19T03:42:09;100314.05;;;-8.00;64.27
56825;BME280;42705;50.326;18.772;2022-12-19T03:47:57;100305.92;;;-7.75;64.26
56825;BME280;42705;50.326;18.772;2022-12-19T04:04:58;100294.05;;;-8.06;63.72
56825;BME280;42705;50.326;18.772;2022-12-19T04:10:23;100290.90;;;-8.18;63.78
56825;BME280;42705;50.326;18.772;2022-12-19T04:15:53;100273.80;;;-8.27;64.00
56825;BME280;42705;50.326;18.772;2022-12-19T04:21:29;100263.94;;;-8.35;64.03
56825;BME280;42705;50.326;18.772;2022-12-19T04:26:56;100251.98;;;-8.43;64.11
56825;BME280;42705;50.326;18.772;2022-12-19T04:32:19;100257.41;;;-8.46;64.25
56825;BME280;42705;50.326;18.772;2022-12-19T04:37:41;100254.42;;;-8.49;64.27
56825;BME280;42705;50.326;18.772;2022-12-19T04:43:02;100251.09;;;-8.45;64.53
56825;BME280;42705;50.326;18.772;2022-12-19T04:48:24;100250.91;;;-8.29;64.76
56825;BME280;42705;50.326;18.772;2022-12-19T04:53:45;100239.59;;;-8.19;64.45
56825;BME280;42705;50.326;18.772;2022-12-19T04:59:06;100253.06;;;-8.25;64.49
56825;BME280;42705;50.326;18.772;2022-12-19T05:04:27;100240.37;;;-7.93;65.02
56825;BME280;42705;50.326;18.772;2022-12-19T05:09:48;100232.75;;;-7.57;65.05
56825;BME280;42705;50.326;18.772;2022-12-19T05:15:10;100231.11;;;-7.52;64.20
56825;BME280;42705;50.326;18.772;2022-12-19T05:20:31;100246.25;;;-7.63;64.01
56825;BME280;42705;50.326;18.772;2022-12-19T05:25:52;100249.30;;;-7.56;63.91
56825;BME280;42705;50.326;18.772;2022-12-19T05:31:18;100243.40;;;-7.51;63.93
56825;BME280;42705;50.326;18.772;2022-12-19T05:36:40;100246.20;;;-7.30;63.97
56825;BME280;42705;50.326;18.772;2022-12-19T05:42:01;100251.84;;;-7.18;63.55
56825;BME280;42705;50.326;18.772;2022-12-19T05:47:22;100251.41;;;-7.19;63.49
56825;BME280;42705;50.326;18.772;2022-12-19T05:52:43;100236.61;;;-7.10;63.21
56825;BME280;42705;50.326;18.772;2022-12-19T05:58:04;100225.38;;;-7.31;62.65
56825;BME280;42705;50.326;18.772;2022-12-19T06:03:25;100230.07;;;-7.66;62.55
56825;BME280;42705;50.326;18.772;2022-12-19T06:08:46;100229.39;;;-7.89;62.55
56825;BME280;42705;50.326;18.772;2022-12-19T06:14:07;100239.86;;;-7.97;62.85
56825;BME280;42705;50.326;18.772;2022-12-19T06:19:29;100246.73;;;-7.92;63.18
56825;BME280;42705;50.326;18.772;2022-12-19T06:24:52;100237.14;;;-7.78;63.08
56825;BME280;42705;50.326;18.772;2022-12-19T06:30:13;100227.42;;;-7.76;62.94
56825;BME280;42705;50.326;18.772;2022-12-19T06:35:35;100233.57;;;-7.94;62.45
56825;BME280;42705;50.326;18.772;2022-12-19T06:40:56;100225.20;;;-8.16;62.49
56825;BME280;42705;50.326;18.772;2022-12-19T06:46:36;100230.25;;;-8.20;62.75
56825;BME280;42705;50.326;18.772;2022-12-19T06:51:58;100216.27;;;-8.19;62.77
56825;BME280;42705;50.326;18.772;2022-12-19T06:57:20;100229.61;;;-8.35;62.59
56825;BME280;42705;50.326;18.772;2022-12-19T07:02:43;100223.52;;;-8.50;62.59
56825;BME280;42705;50.326;18.772;2022-12-19T07:08:07;100211.30;;;-8.43;62.85
56825;BME280;42705;50.326;18.772;2022-12-19T07:13:28;100210.98;;;-8.34;62.93
56825;BME280;42705;50.326;18.772;2022-12-19T07:18:50;100222.34;;;-8.09;63.23
56825;BME280;42705;50.326;18.772;2022-12-19T07:24:11;100225.43;;;-8.00;62.83
56825;BME280;42705;50.326;18.772;2022-12-19T07:29:34;100245.09;;;-7.87;62.78
56825;BME280;42705;50.326;18.772;2022-12-19T07:34:55;100229.03;;;-7.84;62.51
56825;BME280;42705;50.326;18.772;2022-12-19T07:40:16;100240.44;;;-7.87;62.36
56825;BME280;42705;50.326;18.772;2022-12-19T07:45:38;100225.64;;;-7.83;62.51
56825;BME280;42705;50.326;18.772;2022-12-19T07:51:02;100227.46;;;-7.73;62.50
56825;BME280;42705;50.326;18.772;2022-12-19T07:56:25;100217.84;;;-7.59;62.75
56825;BME280;42705;50.326;18.772;2022-12-19T08:01:46;100206.31;;;-7.28;62.77
56825;BME280;42705;50.326;18.772;2022-12-19T08:07:07;100212.89;;;-7.03;62.70
56825;BME280;42705;50.326;18.772;2022-12-19T08:12:28;100221.84;;;-7.01;62.37
56825;BME280;42705;50.326;18.772;2022-12-19T08:17:49;100229.91;;;-7.00;62.29
56825;BME280;42705;50.326;18.772;2022-12-19T08:23:10;100217.60;;;-6.99;62.15
56825;BME280;42705;50.326;18.772;2022-12-19T08:28:33;100206.20;;;-6.90;62.37
56825;BME280;42705;50.326;18.772;2022-12-19T08:33:56;100201.64;;;-6.79;62.13
56825;BME280;42705;50.326;18.772;2022-12-19T08:39:17;100201.25;;;-6.74;62.10
56825;BME280;42705;50.326;18.772;2022-12-19T08:44:38;100205.63;;;-6.55;62.18
56825;BME280;42705;50.326;18.772;2022-12-19T08:49:59;100204.07;;;-6.34;62.17
56825;BME280;42705;50.326;18.772;2022-12-19T08:55:20;100184.60;;;-6.18;62.06
56825;BME280;42705;50.326;18.772;2022-12-19T09:00:41;100194.02;;;-6.00;62.24
56825;BME280;42705;50.326;18.772;2022-12-19T09:06:04;100181.68;;;-6.03;61.82
56825;BME280;42705;50.326;18.772;2022-12-19T09:11:27;100180.41;;;-5.99;61.96
56825;BME280;42705;50.326;18.772;2022-12-19T09:16:48;100175.73;;;-5.93;61.98
56825;BME280;42705;50.326;18.772;2022-12-19T09:22:10;100172.38;;;-5.83;62.01
56825;BME280;42705;50.326;18.772;2022-12-19T09:27:31;100174.12;;;-5.63;62.04
56825;BME280;42705;50.326;18.772;2022-12-19T09:32:52;100170.80;;;-5.34;62.09
56825;BME280;42705;50.326;18.772;2022-12-19T09:38:13;100164.84;;;-5.06;62.02
56825;BME280;42705;50.326;18.772;2022-12-19T09:49:38;100143.09;;;-4.72;61.98
56825;BME280;42705;50.326;18.772;2022-12-19T09:55:21;100133.67;;;-4.55;61.89
56825;BME280;42705;50.326;18.772;2022-12-19T10:00:47;100115.73;;;-4.44;61.79
56825;BME280;42705;50.326;18.772;2022-12-19T10:06:21;100108.89;;;-4.29;61.73
56825;BME280;42705;50.326;18.772;2022-12-19T10:18:03;100112.53;;;-3.86;61.60
56825;BME280;42705;50.326;18.772;2022-12-19T10:29:41;100081.59;;;-3.56;61.39
56825;BME280;42705;50.326;18.772;2022-12-19T10:35:14;100085.37;;;-3.47;61.12
56825;BME280;42705;50.326;18.772;2022-12-19T10:40:43;100071.53;;;-3.26;61.33
56825;BME280;42705;50.326;18.772;2022-12-19T10:46:38;100053.97;;;-3.18;61.15
56825;BME280;42705;50.326;18.772;2022-12-19T10:57:28;100041.73;;;-2.92;61.40
56825;BME280;42705;50.326;18.772;2022-12-19T11:02:50;100034.68;;;-2.72;61.28
56825;BME280;42705;50.326;18.772;2022-12-19T11:08:18;100037.88;;;-2.53;61.40
56825;BME280;42705;50.326;18.772;2022-12-19T11:13:46;100022.55;;;-2.24;61.43
56825;BME280;42705;50.326;18.772;2022-12-19T11:20:11;100014.11;;;-2.00;61.31
56825;BME280;42705;50.326;18.772;2022-12-19T11:24:51;100014.69;;;-1.81;61.17
56825;BME280;42705;50.326;18.772;2022-12-19T11:30:25;99998.38;;;-1.53;61.30
56825;BME280;42705;50.326;18.772;2022-12-19T11:35:50;99997.68;;;-1.37;60.89
56825;BME280;42705;50.326;18.772;2022-12-19T11:46:46;99962.94;;;-1.11;61.03
56825;BME280;42705;50.326;18.772;2022-12-19T11:52:22;99966.36;;;-0.89;60.53
56825;BME280;42705;50.326;18.772;2022-12-19T11:57:53;99967.09;;;-0.61;60.66
56825;BME280;42705;50.326;18.772;2022-12-19T12:14:23;99925.12;;;1.40;58.94
56825;BME280;42705;50.326;18.772;2022-12-19T12:20:08;99926.14;;;2.57;57.73
56825;BME280;42705;50.326;18.772;2022-12-19T12:26:17;99912.92;;;3.48;56.18
56825;BME280;42705;50.326;18.772;2022-12-19T12:43:51;99912.51;;;3.82;53.93
56825;BME280;42705;50.326;18.772;2022-12-19T12:55:24;99888.39;;;3.35;53.91
56825;BME280;42705;50.326;18.772;2022-12-19T13:01:09;99891.86;;;3.24;53.71
56825;BME280;42705;50.326;18.772;2022-12-19T13:06:35;99881.50;;;3.24;54.02
56825;BME280;42705;50.326;18.772;2022-12-19T13:24:11;99871.03;;;2.67;54.02
56825;BME280;42705;50.326;18.772;2022-12-19T13:29:33;99872.14;;;2.35;54.40
56825;BME280;42705;50.326;18.772;2022-12-19T13:34:57;99861.16;;;2.16;54.75
56825;BME280;42705;50.326;18.772;2022-12-19T13:40:28;99873.30;;;1.87;55.15
56825;BME280;42705;50.326;18.772;2022-12-19T13:46:00;99863.80;;;1.61;55.46
56825;BME280;42705;50.326;18.772;2022-12-19T13:51:24;99860.02;;;1.29;55.69
56825;BME280;42705;50.326;18.772;2022-12-19T13:56:45;99868.31;;;0.80;56.00
56825;BME280;42705;50.326;18.772;2022-12-19T14:02:16;99864.33;;;0.37;56.65
56825;BME280;42705;50.326;18.772;2022-12-19T14:07:40;99861.80;;;0.02;57.13
56825;BME280;42705;50.326;18.772;2022-12-19T14:13:04;99858.02;;;-0.37;57.60
56825;BME280;42705;50.326;18.772;2022-12-19T14:18:47;99846.05;;;-0.99;58.78
56825;BME280;42705;50.326;18.772;2022-12-19T14:24:19;99846.05;;;-0.99;58.78
56825;BME280;42705;50.326;18.772;2022-12-19T14:29:50;99836.44;;;-1.32;59.44
56825;BME280;42705;50.326;18.772;2022-12-19T14:35:21;99833.84;;;-1.51;60.16
56825;BME280;42705;50.326;18.772;2022-12-19T14:40:44;99824.36;;;-1.72;60.58
56825;BME280;42705;50.326;18.772;2022-12-19T14:51:44;99834.30;;;-2.00;61.50
56825;BME280;42705;50.326;18.772;2022-12-19T14:57:14;99822.98;;;-2.14;61.93
56825;BME280;42705;50.326;18.772;2022-12-19T15:02:32;99816.72;;;-2.24;62.32
56825;BME280;42705;50.326;18.772;2022-12-19T15:07:55;99800.63;;;-2.35;62.74
56825;BME280;42705;50.326;18.772;2022-12-19T15:13:21;99795.17;;;-2.41;63.02
56825;BME280;42705;50.326;18.772;2022-12-19T15:18:45;99796.92;;;-2.43;63.24
56825;BME280;42705;50.326;18.772;2022-12-19T15:24:07;99803.39;;;-2.46;63.49
56825;BME280;42705;50.326;18.772;2022-12-19T15:29:29;99799.97;;;-2.48;63.62
56825;BME280;42705;50.326;18.772;2022-12-19T15:34:52;99791.08;;;-2.53;63.93
56825;BME280;42705;50.326;18.772;2022-12-19T15:40:15;99788.11;;;-2.55;64.17
56825;BME280;42705;50.326;18.772;2022-12-19T15:45:37;99798.37;;;-2.54;64.29
56825;BME280;42705;50.326;18.772;2022-12-19T15:50:58;99785.59;;;-2.57;64.46
56825;BME280;42705;50.326;18.772;2022-12-19T15:56:26;99775.70;;;-2.54;64.66
56825;BME280;42705;50.326;18.772;2022-12-19T16:01:46;99773.53;;;-2.52;64.82
56825;BME280;42705;50.326;18.772;2022-12-19T16:07:16;99766.66;;;-2.51;64.81
56825;BME280;42705;50.326;18.772;2022-12-19T16:12:42;99761.57;;;-2.53;64.86
56825;BME280;42705;50.326;18.772;2022-12-19T16:18:12;99765.06;;;-2.57;65.04
56825;BME280;42705;50.326;18.772;2022-12-19T16:23:34;99764.61;;;-2.56;65.19
56825;BME280;42705;50.326;18.772;2022-12-19T16:28:55;99762.09;;;-2.58;65.34
56825;BME280;42705;50.326;18.772;2022-12-19T16:34:19;99754.34;;;-2.56;65.42
56825;BME280;42705;50.326;18.772;2022-12-19T16:39:42;99746.18;;;-2.54;65.48
56825;BME280;42705;50.326;18.772;2022-12-19T16:45:04;99738.83;;;-2.49;65.53
56825;BME280;42705;50.326;18.772;2022-12-19T16:50:29;99732.34;;;-2.44;65.45
56825;BME280;42705;50.326;18.772;2022-12-19T16:55:53;99721.61;;;-2.42;65.49
56825;BME280;42705;50.326;18.772;2022-12-19T17:01:15;99713.39;;;-2.37;65.47
56825;BME280;42705;50.326;18.772;2022-12-19T17:06:36;99714.14;;;-2.31;65.47
56825;BME280;42705;50.326;18.772;2022-12-19T17:11:59;99713.16;;;-2.24;65.54
56825;BME280;42705;50.326;18.772;2022-12-19T17:17:21;99712.61;;;-2.17;65.34
56825;BME280;42705;50.326;18.772;2022-12-19T17:22:43;99715.53;;;-2.13;65.26
56825;BME280;42705;50.326;18.772;2022-12-19T17:28:04;99731.77;;;-2.13;65.16
56825;BME280;42705;50.326;18.772;2022-12-19T17:33:34;99724.41;;;-2.09;65.17
56825;BME280;42705;50.326;18.772;2022-12-19T17:38:57;99714.00;;;-2.01;65.20
56825;BME280;42705;50.326;18.772;2022-12-19T17:44:19;99704.42;;;-1.93;65.15
56825;BME280;42705;50.326;18.772;2022-12-19T17:49:40;99697.44;;;-1.86;65.09
56825;BME280;42705;50.326;18.772;2022-12-19T17:55:26;99702.58;;;-1.86;64.92
56825;BME280;42705;50.326;18.772;2022-12-19T18:00:41;99694.05;;;-1.86;64.84
56825;BME280;42705;50.326;18.772;2022-12-19T18:06:03;99694.34;;;-1.81;64.78
56825;BME280;42705;50.326;18.772;2022-12-19T18:11:25;99700.68;;;-1.76;64.61
56825;BME280;42705;50.326;18.772;2022-12-19T18:16:48;99706.55;;;-1.69;64.53
56825;BME280;42705;50.326;18.772;2022-12-19T18:22:12;99697.91;;;-1.67;64.39
56825;BME280;42705;50.326;18.772;2022-12-19T18:27:35;99702.97;;;-1.62;64.11
56825;BME280;42705;50.326;18.772;2022-12-19T18:32:59;99684.09;;;-1.61;64.08
56825;BME280;42705;50.326;18.772;2022-12-19T18:38:22;99669.44;;;-1.57;63.96
56825;BME280;42705;50.326;18.772;2022-12-19T18:43:44;99657.30;;;-1.51;64.01
56825;BME280;42705;50.326;18.772;2022-12-19T18:49:11;99646.12;;;-1.48;63.80
56825;BME280;42705;50.326;18.772;2022-12-19T18:54:33;99650.73;;;-1.44;63.69
56825;BME280;42705;50.326;18.772;2022-12-19T18:59:55;99642.59;;;-1.44;63.57
56825;BME280;42705;50.326;18.772;2022-12-19T19:05:18;99648.63;;;-1.45;63.46
56825;BME280;42705;50.326;18.772;2022-12-19T19:10:42;99645.64;;;-1.46;63.42
56825;BME280;42705;50.326;18.772;2022-12-19T19:16:15;99625.98;;;-1.49;63.47
56825;BME280;42705;50.326;18.772;2022-12-19T19:21:35;99620.02;;;-1.49;63.43
56825;BME280;42705;50.326;18.772;2022-12-19T19:26:59;99638.84;;;-1.49;63.50
56825;BME280;42705;50.326;18.772;2022-12-19T19:32:20;99652.55;;;-1.48;63.59
56825;BME280;42705;50.326;18.772;2022-12-19T19:37:46;99637.53;;;-1.47;63.68
56825;BME280;42705;50.326;18.772;2022-12-19T19:43:10;99629.75;;;-1.44;63.82
56825;BME280;42705;50.326;18.772;2022-12-19T19:48:33;99628.81;;;-1.41;64.01
56825;BME280;42705;50.326;18.772;2022-12-19T19:53:55;99630.42;;;-1.37;64.14
56825;BME280;42705;50.326;18.772;2022-12-19T19:59:16;99616.61;;;-1.33;64.19
56825;BME280;42705;50.326;18.772;2022-12-19T20:04:38;99616.17;;;-1.31;64.30
56825;BME280;42705;50.326;18.772;2022-12-19T20:09:59;99606.64;;;-1.27;64.45
56825;BME280;42705;50.326;18.772;2022-12-19T20:15:21;99602.70;;;-1.24;64.55
56825;BME280;42705;50.326;18.772;2022-12-19T20:20:42;99612.48;;;-1.21;64.58
56825;BME280;42705;50.326;18.772;2022-12-19T20:26:04;99609.11;;;-1.23;64.61
56825;BME280;42705;50.326;18.772;2022-12-19T20:31:29;99606.94;;;-1.22;64.64
56825;BME280;42705;50.326;18.772;2022-12-19T20:36:50;99611.68;;;-1.23;64.76
56825;BME280;42705;50.326;18.772;2022-12-19T20:42:13;99599.25;;;-1.23;64.86
56825;BME280;42705;50.326;18.772;2022-12-19T20:47:35;99599.63;;;-1.21;64.84
56825;BME280;42705;50.326;18.772;2022-12-19T20:52:56;99592.31;;;-1.20;64.91
56825;BME280;42705;50.326;18.772;2022-12-19T20:58:20;99574.26;;;-1.18;64.95
56825;BME280;42705;50.326;18.772;2022-12-19T21:03:44;99583.16;;;-1.13;64.88
56825;BME280;42705;50.326;18.772;2022-12-19T21:09:07;99579.27;;;-1.12;64.87
56825;BME280;42705;50.326;18.772;2022-12-19T21:14:32;99575.34;;;-1.09;64.84
56825;BME280;42705;50.326;18.772;2022-12-19T21:19:56;99572.31;;;-1.08;64.91
56825;BME280;42705;50.326;18.772;2022-12-19T21:25:18;99570.14;;;-1.07;64.99
56825;BME280;42705;50.326;18.772;2022-12-19T21:30:40;99570.06;;;-1.04;65.00
56825;BME280;42705;50.326;18.772;2022-12-19T21:36:11;99558.00;;;-1.02;65.04
56825;BME280;42705;50.326;18.772;2022-12-19T21:41:34;99548.51;;;-1.00;65.00
56825;BME280;42705;50.326;18.772;2022-12-19T21:46:55;99549.77;;;-0.98;64.97
56825;BME280;42705;50.326;18.772;2022-12-19T21:52:16;99550.58;;;-0.96;65.03
56825;BME280;42705;50.326;18.772;2022-12-19T21:57:39;99559.09;;;-0.94;64.98
56825;BME280;42705;50.326;18.772;2022-12-19T22:03:01;99561.24;;;-0.94;65.05
56825;BME280;42705;50.326;18.772;2022-12-19T22:08:22;99565.50;;;-0.93;65.13
56825;BME280;42705;50.326;18.772;2022-12-19T22:13:44;99554.73;;;-0.91;65.11
56825;BME280;42705;50.326;18.772;2022-12-19T22:19:06;99547.00;;;-0.91;65.20
56825;BME280;42705;50.326;18.772;2022-12-19T22:24:28;99545.66;;;-0.89;65.23
56825;BME280;42705;50.326;18.772;2022-12-19T22:29:49;99536.66;;;-0.89;65.34
56825;BME280;42705;50.326;18.772;2022-12-19T22:35:11;99529.80;;;-0.89;65.37
56825;BME280;42705;50.326;18.772;2022-12-19T22:40:33;99537.94;;;-0.89;65.45
56825;BME280;42705;50.326;18.772;2022-12-19T22:45:54;99520.30;;;-0.86;65.41
56825;BME280;42705;50.326;18.772;2022-12-19T22:51:16;99521.19;;;-0.88;65.52
56825;BME280;42705;50.326;18.772;2022-12-19T22:56:39;99507.47;;;-0.88;65.65
56825;BME280;42705;50.326;18.772;2022-12-19T23:02:01;99503.58;;;-0.86;65.71
56825;BME280;42705;50.326;18.772;2022-12-19T23:07:22;99506.07;;;-0.83;65.69
56825;BME280;42705;50.326;18.772;2022-12-19T23:12:43;99487.56;;;-0.81;65.63
56825;BME280;42705;50.326;18.772;2022-12-19T23:18:04;99481.96;;;-0.81;65.63
56825;BME280;42705;50.326;18.772;2022-12-19T23:23:25;99490.88;;;-0.78;65.65
56825;BME280;42705;50.326;18.772;2022-12-19T23:28:52;99488.67;;;-0.75;65.58
56825;BME280;42705;50.326;18.772;2022-12-19T23:34:14;99490.85;;;-0.76;65.61
56825;BME280;42705;50.326;18.772;2022-12-19T23:39:36;99498.97;;;-0.75;65.60
56825;BME280;42705;50.326;18.772;2022-12-19T23:44:57;99492.11;;;-0.75;65.63
56825;BME280;42705;50.326;18.772;2022-12-19T23:50:18;99512.70;;;-0.75;65.67
56825;BME280;42705;50.326;18.772;2022-12-19T23:55:39;99498.48;;;-0.73;65.73
